sensor_id;sensor_type;location;lat;lon;timestamp;P1;durP1;ratioP1;P2;durP2;ratioP2
44706;SDS011;30433;45.596;8.408;2023-07-13T00:04:39;7.35;;;3.60;;
44706;SDS011;30433;45.596;8.408;2023-07-13T00:10:41;7.65;;;4.50;;
44706;SDS011;30433;45.596;8.408;2023-07-13T00:16:46;12.20;;;4.47;;
44706;SDS011;30433;45.596;8.408;2023-07-13T00:22:50;7.88;;;4.78;;
44706;SDS011;30433;45.596;8.408;2023-07-13T00:28:53;8.32;;;4.57;;
44706;SDS011;30433;45.596;8.408;2023-07-13T00:34:55;8.55;;;4.53;;
44706;SDS011;30433;45.596;8.408;2023-07-13T00:47:01;5.95;;;4.55;;
44706;SDS011;30433;45.596;8.408;2023-07-13T00:53:03;11.05;;;4.57;;
44706;SDS011;30433;45.596;8.408;2023-07-13T00:59:07;12.63;;;4.85;;
44706;SDS011;30433;45.596;8.408;2023-07-13T01:05:12;8.70;;;5.22;;
44706;SDS011;30433;45.596;8.408;2023-07-13T01:11:18;9.75;;;5.55;;
44706;SDS011;30433;45.596;8.408;2023-07-13T01:17:23;15.02;;;5.75;;
44706;SDS011;30433;45.596;8.408;2023-07-13T01:23:27;7.55;;;4.78;;
44706;SDS011;30433;45.596;8.408;2023-07-13T01:29:31;8.23;;;5.18;;
44706;SDS011;30433;45.596;8.408;2023-07-13T01:35:34;10.07;;;5.45;;
44706;SDS011;30433;45.596;8.408;2023-07-13T01:41:37;9.25;;;5.88;;
44706;SDS011;30433;45.596;8.408;2023-07-13T01:47:39;11.45;;;5.68;;
44706;SDS011;30433;45.596;8.408;2023-07-13T01:53:41;11.93;;;6.35;;
44706;SDS011;30433;45.596;8.408;2023-07-13T01:59:45;8.73;;;5.97;;
44706;SDS011;30433;45.596;8.408;2023-07-13T02:05:47;16.35;;;6.80;;
44706;SDS011;30433;45.596;8.408;2023-07-13T02:11:49;9.63;;;6.85;;
44706;SDS011;30433;45.596;8.408;2023-07-13T02:17:52;7.63;;;6.10;;
44706;SDS011;30433;45.596;8.408;2023-07-13T02:23:55;12.25;;;6.03;;
44706;SDS011;30433;45.596;8.408;2023-07-13T02:29:57;12.40;;;6.30;;
44706;SDS011;30433;45.596;8.408;2023-07-13T02:36:01;11.40;;;6.22;;
44706;SDS011;30433;45.596;8.408;2023-07-13T02:42:06;7.43;;;5.40;;
44706;SDS011;30433;45.596;8.408;2023-07-13T02:48:08;10.80;;;5.57;;
44706;SDS011;30433;45.596;8.408;2023-07-13T02:54:11;6.82;;;5.82;;
44706;SDS011;30433;45.596;8.408;2023-07-13T03:00:16;10.45;;;5.95;;
44706;SDS011;30433;45.596;8.408;2023-07-13T03:06:19;10.02;;;6.30;;
44706;SDS011;30433;45.596;8.408;2023-07-13T03:12:23;11.40;;;6.00;;
44706;SDS011;30433;45.596;8.408;2023-07-13T03:18:25;8.68;;;6.30;;
44706;SDS011;30433;45.596;8.408;2023-07-13T03:24:27;11.90;;;6.40;;
44706;SDS011;30433;45.596;8.408;2023-07-13T03:30:31;7.75;;;5.43;;
44706;SDS011;30433;45.596;8.408;2023-07-13T03:36:33;6.93;;;5.63;;
44706;SDS011;30433;45.596;8.408;2023-07-13T03:42:35;9.25;;;5.50;;
44706;SDS011;30433;45.596;8.408;2023-07-13T03:48:38;12.82;;;6.30;;
44706;SDS011;30433;45.596;8.408;2023-07-13T03:54:42;11.27;;;5.43;;
44706;SDS011;30433;45.596;8.408;2023-07-13T04:00:45;10.88;;;4.55;;
44706;SDS011;30433;45.596;8.408;2023-07-13T04:06:48;9.68;;;4.93;;
44706;SDS011;30433;45.596;8.408;2023-07-13T04:12:53;7.38;;;4.90;;
44706;SDS011;30433;45.596;8.408;2023-07-13T04:18:55;7.13;;;5.00;;
44706;SDS011;30433;45.596;8.408;2023-07-13T04:25:01;11.55;;;4.72;;
44706;SDS011;30433;45.596;8.408;2023-07-13T04:31:05;7.35;;;4.18;;
44706;SDS011;30433;45.596;8.408;2023-07-13T04:37:07;9.68;;;4.60;;
44706;SDS011;30433;45.596;8.408;2023-07-13T04:43:11;10.63;;;5.20;;
44706;SDS011;30433;45.596;8.408;2023-07-13T04:49:13;9.65;;;5.00;;
44706;SDS011;30433;45.596;8.408;2023-07-13T04:55:15;8.60;;;4.90;;
44706;SDS011;30433;45.596;8.408;2023-07-13T05:01:19;10.75;;;4.93;;
44706;SDS011;30433;45.596;8.408;2023-07-13T05:07:21;8.85;;;4.70;;
44706;SDS011;30433;45.596;8.408;2023-07-13T05:19:27;9.00;;;4.47;;
44706;SDS011;30433;45.596;8.408;2023-07-13T05:25:29;11.73;;;6.00;;
44706;SDS011;30433;45.596;8.408;2023-07-13T05:31:31;10.85;;;5.22;;
44706;SDS011;30433;45.596;8.408;2023-07-13T05:37:35;16.40;;;6.28;;
44706;SDS011;30433;45.596;8.408;2023-07-13T05:43:38;8.55;;;4.72;;
44706;SDS011;30433;45.596;8.408;2023-07-13T05:49:40;10.50;;;5.00;;
44706;SDS011;30433;45.596;8.408;2023-07-13T05:55:44;7.38;;;4.07;;
44706;SDS011;30433;45.596;8.408;2023-07-13T06:01:50;10.82;;;4.15;;
44706;SDS011;30433;45.596;8.408;2023-07-13T06:07:53;9.70;;;3.88;;
44706;SDS011;30433;45.596;8.408;2023-07-13T06:20:01;6.90;;;3.03;;
44706;SDS011;30433;45.596;8.408;2023-07-13T06:26:05;6.28;;;3.40;;
44706;SDS011;30433;45.596;8.408;2023-07-13T06:32:10;8.68;;;3.38;;
44706;SDS011;30433;45.596;8.408;2023-07-13T06:38:12;5.72;;;2.50;;
44706;SDS011;30433;45.596;8.408;2023-07-13T06:44:15;4.22;;;2.20;;
44706;SDS011;30433;45.596;8.408;2023-07-13T06:56:21;7.68;;;2.70;;
44706;SDS011;30433;45.596;8.408;2023-07-13T07:02:24;8.05;;;2.65;;
44706;SDS011;30433;45.596;8.408;2023-07-13T07:14:32;4.20;;;2.30;;
44706;SDS011;30433;45.596;8.408;2023-07-13T07:20:35;2.97;;;2.13;;
44706;SDS011;30433;45.596;8.408;2023-07-13T07:26:41;3.10;;;2.13;;
44706;SDS011;30433;45.596;8.408;2023-07-13T07:32:43;3.53;;;2.00;;
44706;SDS011;30433;45.596;8.408;2023-07-13T07:38:45;22.92;;;3.20;;
44706;SDS011;30433;45.596;8.408;2023-07-13T07:50:50;6.63;;;2.33;;
44706;SDS011;30433;45.596;8.408;2023-07-13T07:56:53;3.60;;;1.73;;
44706;SDS011;30433;45.596;8.408;2023-07-13T08:02:56;4.45;;;2.45;;
44706;SDS011;30433;45.596;8.408;2023-07-13T08:08:59;2.38;;;1.70;;
44706;SDS011;30433;45.596;8.408;2023-07-13T08:15:01;4.03;;;2.00;;
44706;SDS011;30433;45.596;8.408;2023-07-13T08:21:07;4.75;;;1.70;;
44706;SDS011;30433;45.596;8.408;2023-07-13T08:27:10;2.72;;;1.60;;
44706;SDS011;30433;45.596;8.408;2023-07-13T08:33:12;3.80;;;1.90;;
44706;SDS011;30433;45.596;8.408;2023-07-13T08:39:17;4.25;;;1.70;;
44706;SDS011;30433;45.596;8.408;2023-07-13T08:45:20;3.92;;;1.80;;
44706;SDS011;30433;45.596;8.408;2023-07-13T08:51:26;4.20;;;1.63;;
44706;SDS011;30433;45.596;8.408;2023-07-13T08:57:39;2.83;;;1.55;;
44706;SDS011;30433;45.596;8.408;2023-07-13T09:03:46;3.53;;;1.70;;
44706;SDS011;30433;45.596;8.408;2023-07-13T09:10:05;2.47;;;1.40;;
44706;SDS011;30433;45.596;8.408;2023-07-13T09:16:16;3.15;;;1.60;;
44706;SDS011;30433;45.596;8.408;2023-07-13T09:22:20;3.35;;;1.77;;
44706;SDS011;30433;45.596;8.408;2023-07-13T09:28:24;3.30;;;1.80;;
44706;SDS011;30433;45.596;8.408;2023-07-13T09:34:32;3.20;;;1.90;;
44706;SDS011;30433;45.596;8.408;2023-07-13T09:40:37;2.53;;;1.50;;
44706;SDS011;30433;45.596;8.408;2023-07-13T09:47:02;4.32;;;1.63;;
44706;SDS011;30433;45.596;8.408;2023-07-13T09:53:09;3.58;;;2.15;;
44706;SDS011;30433;45.596;8.408;2023-07-13T09:59:20;5.85;;;2.00;;
44706;SDS011;30433;45.596;8.408;2023-07-13T10:05:24;2.95;;;1.77;;
44706;SDS011;30433;45.596;8.408;2023-07-13T10:11:28;4.80;;;2.20;;
44706;SDS011;30433;45.596;8.408;2023-07-13T10:17:33;4.82;;;2.40;;
44706;SDS011;30433;45.596;8.408;2023-07-13T10:23:36;4.22;;;2.10;;
44706;SDS011;30433;45.596;8.408;2023-07-13T10:29:42;4.22;;;2.10;;
44706;SDS011;30433;45.596;8.408;2023-07-13T10:35:49;6.75;;;2.53;;
44706;SDS011;30433;45.596;8.408;2023-07-13T10:41:57;6.43;;;2.55;;
44706;SDS011;30433;45.596;8.408;2023-07-13T10:48:05;4.90;;;2.50;;
44706;SDS011;30433;45.596;8.408;2023-07-13T10:54:19;5.00;;;2.40;;
44706;SDS011;30433;45.596;8.408;2023-07-13T11:00:23;4.20;;;2.53;;
44706;SDS011;30433;45.596;8.408;2023-07-13T11:06:36;6.38;;;2.70;;
44706;SDS011;30433;45.596;8.408;2023-07-13T11:12:52;4.18;;;2.40;;
44706;SDS011;30433;45.596;8.408;2023-07-13T11:19:08;5.93;;;2.60;;
44706;SDS011;30433;45.596;8.408;2023-07-13T11:31:33;5.32;;;2.63;;
44706;SDS011;30433;45.596;8.408;2023-07-13T11:37:35;4.25;;;2.28;;
44706;SDS011;30433;45.596;8.408;2023-07-13T11:43:41;6.75;;;2.63;;
44706;SDS011;30433;45.596;8.408;2023-07-13T11:49:43;8.43;;;2.72;;
44706;SDS011;30433;45.596;8.408;2023-07-13T11:55:48;10.05;;;3.17;;
44706;SDS011;30433;45.596;8.408;2023-07-13T12:01:54;4.90;;;2.65;;
44706;SDS011;30433;45.596;8.408;2023-07-13T12:07:56;5.97;;;2.88;;
44706;SDS011;30433;45.596;8.408;2023-07-13T12:13:58;7.05;;;2.63;;
44706;SDS011;30433;45.596;8.408;2023-07-13T12:20:09;5.22;;;2.83;;
44706;SDS011;30433;45.596;8.408;2023-07-13T12:26:20;4.72;;;2.20;;
44706;SDS011;30433;45.596;8.408;2023-07-13T12:32:23;3.90;;;2.00;;
44706;SDS011;30433;45.596;8.408;2023-07-13T12:38:28;6.60;;;2.00;;
44706;SDS011;30433;45.596;8.408;2023-07-13T12:44:31;5.72;;;2.00;;
44706;SDS011;30433;45.596;8.408;2023-07-13T12:50:34;13.02;;;2.67;;
44706;SDS011;30433;45.596;8.408;2023-07-13T12:56:42;7.80;;;2.70;;
44706;SDS011;30433;45.596;8.408;2023-07-13T13:02:45;5.85;;;3.17;;
44706;SDS011;30433;45.596;8.408;2023-07-13T13:08:52;4.68;;;2.40;;
44706;SDS011;30433;45.596;8.408;2023-07-13T13:14:57;9.00;;;3.10;;
44706;SDS011;30433;45.596;8.408;2023-07-13T13:20:59;7.78;;;2.45;;
44706;SDS011;30433;45.596;8.408;2023-07-13T13:27:01;4.68;;;1.80;;
44706;SDS011;30433;45.596;8.408;2023-07-13T13:33:08;3.38;;;1.75;;
44706;SDS011;30433;45.596;8.408;2023-07-13T13:39:19;3.30;;;1.63;;
44706;SDS011;30433;45.596;8.408;2023-07-13T13:45:22;6.97;;;1.92;;
44706;SDS011;30433;45.596;8.408;2023-07-13T13:51:26;4.47;;;1.85;;
44706;SDS011;30433;45.596;8.408;2023-07-13T13:57:29;3.85;;;1.98;;
44706;SDS011;30433;45.596;8.408;2023-07-13T14:09:35;4.20;;;1.85;;
44706;SDS011;30433;45.596;8.408;2023-07-13T14:15:38;4.03;;;1.92;;
44706;SDS011;30433;45.596;8.408;2023-07-13T14:21:40;4.30;;;2.00;;
44706;SDS011;30433;45.596;8.408;2023-07-13T14:27:44;5.43;;;1.70;;
44706;SDS011;30433;45.596;8.408;2023-07-13T14:33:50;2.45;;;1.80;;
44706;SDS011;30433;45.596;8.408;2023-07-13T14:39:52;3.42;;;2.00;;
44706;SDS011;30433;45.596;8.408;2023-07-13T14:45:56;6.18;;;1.58;;
44706;SDS011;30433;45.596;8.408;2023-07-13T14:51:59;3.05;;;2.05;;
44706;SDS011;30433;45.596;8.408;2023-07-13T14:58:05;4.90;;;2.10;;
44706;SDS011;30433;45.596;8.408;2023-07-13T15:04:12;4.05;;;2.00;;
44706;SDS011;30433;45.596;8.408;2023-07-13T15:10:18;4.00;;;2.10;;
44706;SDS011;30433;45.596;8.408;2023-07-13T15:16:22;3.83;;;2.25;;
44706;SDS011;30433;45.596;8.408;2023-07-13T15:22:30;3.60;;;1.95;;
44706;SDS011;30433;45.596;8.408;2023-07-13T15:28:33;2.45;;;1.88;;
44706;SDS011;30433;45.596;8.408;2023-07-13T15:34:35;3.88;;;2.22;;
44706;SDS011;30433;45.596;8.408;2023-07-13T15:40:41;4.53;;;2.15;;
44706;SDS011;30433;45.596;8.408;2023-07-13T15:46:45;4.80;;;2.20;;
44706;SDS011;30433;45.596;8.408;2023-07-13T15:52:48;7.10;;;2.40;;
44706;SDS011;30433;45.596;8.408;2023-07-13T15:58:54;3.63;;;2.00;;
44706;SDS011;30433;45.596;8.408;2023-07-13T16:04:57;6.50;;;2.70;;
44706;SDS011;30433;45.596;8.408;2023-07-13T16:11:02;5.10;;;3.05;;
44706;SDS011;30433;45.596;8.408;2023-07-13T16:17:07;4.78;;;2.42;;
44706;SDS011;30433;45.596;8.408;2023-07-13T16:23:11;4.50;;;2.58;;
44706;SDS011;30433;45.596;8.408;2023-07-13T16:29:15;4.95;;;2.80;;
44706;SDS011;30433;45.596;8.408;2023-07-13T16:35:26;5.75;;;2.47;;
44706;SDS011;30433;45.596;8.408;2023-07-13T16:41:29;3.60;;;2.60;;
44706;SDS011;30433;45.596;8.408;2023-07-13T16:47:33;7.90;;;3.03;;
44706;SDS011;30433;45.596;8.408;2023-07-13T16:53:36;5.32;;;2.78;;
44706;SDS011;30433;45.596;8.408;2023-07-13T16:59:40;6.22;;;2.92;;
44706;SDS011;30433;45.596;8.408;2023-07-13T17:05:46;4.95;;;2.70;;
44706;SDS011;30433;45.596;8.408;2023-07-13T17:11:51;4.80;;;3.10;;
44706;SDS011;30433;45.596;8.408;2023-07-13T17:17:53;5.88;;;2.97;;
44706;SDS011;30433;45.596;8.408;2023-07-13T17:24:12;10.40;;;2.92;;
44706;SDS011;30433;45.596;8.408;2023-07-13T17:30:19;5.68;;;3.05;;
44706;SDS011;30433;45.596;8.408;2023-07-13T17:36:22;5.53;;;2.90;;
44706;SDS011;30433;45.596;8.408;2023-07-13T17:42:24;5.07;;;3.10;;
44706;SDS011;30433;45.596;8.408;2023-07-13T17:48:27;7.68;;;3.00;;
44706;SDS011;30433;45.596;8.408;2023-07-13T17:54:30;6.05;;;2.78;;
44706;SDS011;30433;45.596;8.408;2023-07-13T18:00:33;6.55;;;2.95;;
44706;SDS011;30433;45.596;8.408;2023-07-13T18:06:39;6.68;;;2.80;;
44706;SDS011;30433;45.596;8.408;2023-07-13T18:12:44;5.68;;;2.88;;
44706;SDS011;30433;45.596;8.408;2023-07-13T18:18:46;5.97;;;2.72;;
44706;SDS011;30433;45.596;8.408;2023-07-13T18:24:53;7.75;;;3.58;;
44706;SDS011;30433;45.596;8.408;2023-07-13T18:30:55;4.40;;;3.05;;
44706;SDS011;30433;45.596;8.408;2023-07-13T18:36:59;5.80;;;3.13;;
44706;SDS011;30433;45.596;8.408;2023-07-13T18:43:03;4.22;;;3.10;;
44706;SDS011;30433;45.596;8.408;2023-07-13T18:49:08;5.43;;;3.28;;
44706;SDS011;30433;45.596;8.408;2023-07-13T18:55:14;4.40;;;3.28;;
44706;SDS011;30433;45.596;8.408;2023-07-13T19:01:22;5.55;;;3.05;;
44706;SDS011;30433;45.596;8.408;2023-07-13T19:07:30;5.57;;;2.90;;
44706;SDS011;30433;45.596;8.408;2023-07-13T19:13:33;7.20;;;2.95;;
44706;SDS011;30433;45.596;8.408;2023-07-13T19:19:39;5.93;;;3.50;;
44706;SDS011;30433;45.596;8.408;2023-07-13T19:25:41;4.53;;;2.92;;
44706;SDS011;30433;45.596;8.408;2023-07-13T19:31:44;8.00;;;3.58;;
44706;SDS011;30433;45.596;8.408;2023-07-13T19:37:48;9.02;;;3.15;;
44706;SDS011;30433;45.596;8.408;2023-07-13T19:43:53;8.70;;;3.30;;
44706;SDS011;30433;45.596;8.408;2023-07-13T19:49:56;8.35;;;3.00;;
44706;SDS011;30433;45.596;8.408;2023-07-13T19:56:03;6.18;;;3.15;;
44706;SDS011;30433;45.596;8.408;2023-07-13T20:02:09;10.27;;;3.20;;
44706;SDS011;30433;45.596;8.408;2023-07-13T20:08:15;6.10;;;2.90;;
44706;SDS011;30433;45.596;8.408;2023-07-13T20:14:22;3.55;;;2.80;;
44706;SDS011;30433;45.596;8.408;2023-07-13T20:20:28;8.75;;;2.90;;
44706;SDS011;30433;45.596;8.408;2023-07-13T20:26:32;4.32;;;2.70;;
44706;SDS011;30433;45.596;8.408;2023-07-13T20:32:36;6.93;;;2.63;;
44706;SDS011;30433;45.596;8.408;2023-07-13T20:38:40;4.65;;;2.50;;
44706;SDS011;30433;45.596;8.408;2023-07-13T20:44:43;3.63;;;2.35;;
44706;SDS011;30433;45.596;8.408;2023-07-13T20:50:47;5.35;;;2.28;;
44706;SDS011;30433;45.596;8.408;2023-07-13T20:56:50;4.85;;;2.10;;
44706;SDS011;30433;45.596;8.408;2023-07-13T21:02:54;5.35;;;2.55;;
44706;SDS011;30433;45.596;8.408;2023-07-13T21:09:02;5.72;;;2.20;;
44706;SDS011;30433;45.596;8.408;2023-07-13T21:15:14;4.18;;;2.05;;
44706;SDS011;30433;45.596;8.408;2023-07-13T21:21:17;5.57;;;2.53;;
44706;SDS011;30433;45.596;8.408;2023-07-13T21:27:22;7.25;;;2.60;;
44706;SDS011;30433;45.596;8.408;2023-07-13T21:33:24;3.50;;;2.08;;
44706;SDS011;30433;45.596;8.408;2023-07-13T21:39:26;7.10;;;2.60;;
44706;SDS011;30433;45.596;8.408;2023-07-13T21:51:32;6.95;;;2.22;;
44706;SDS011;30433;45.596;8.408;2023-07-13T21:57:35;4.15;;;2.30;;
44706;SDS011;30433;45.596;8.408;2023-07-13T22:03:39;4.13;;;2.47;;
44706;SDS011;30433;45.596;8.408;2023-07-13T22:09:41;4.30;;;2.30;;
44706;SDS011;30433;45.596;8.408;2023-07-13T22:21:47;5.10;;;2.47;;
44706;SDS011;30433;45.596;8.408;2023-07-13T22:27:49;7.82;;;2.63;;
44706;SDS011;30433;45.596;8.408;2023-07-13T22:33:51;5.82;;;2.50;;
44706;SDS011;30433;45.596;8.408;2023-07-13T22:39:58;4.90;;;2.50;;
44706;SDS011;30433;45.596;8.408;2023-07-13T22:46:01;4.38;;;2.05;;
44706;SDS011;30433;45.596;8.408;2023-07-13T22:52:08;5.47;;;2.10;;
44706;SDS011;30433;45.596;8.408;2023-07-13T22:58:13;3.47;;;1.95;;
44706;SDS011;30433;45.596;8.408;2023-07-13T23:04:16;3.83;;;2.08;;
44706;SDS011;30433;45.596;8.408;2023-07-13T23:10:23;4.57;;;2.28;;
44706;SDS011;30433;45.596;8.408;2023-07-13T23:16:28;6.43;;;2.00;;
44706;SDS011;30433;45.596;8.408;2023-07-13T23:22:31;6.03;;;2.20;;
44706;SDS011;30433;45.596;8.408;2023-07-13T23:28:33;5.05;;;2.30;;
44706;SDS011;30433;45.596;8.408;2023-07-13T23:34:36;5.10;;;2.25;;
44706;SDS011;30433;45.596;8.408;2023-07-13T23:40:39;5.55;;;2.63;;
44706;SDS011;30433;45.596;8.408;2023-07-13T23:46:42;2.72;;;2.15;;
44706;SDS011;30433;45.596;8.408;2023-07-13T23:52:48;3.22;;;2.50;;
44706;SDS011;30433;45.596;8.408;2023-07-13T23:58:51;4.22;;;2.10;;
